Austin, TX (78728)

1:24 PM CST on November 21, 2014 (GMT -0600)
Ashton Woods | Change Station
CLOSE
Current Station
Personal Weather Station
Location: Austin, TX
Elevation: 814 ft
Nearby Weather Stations

Elev 814 ft 30.44 °N, 97.71 °W | Updated 11 minutes ago

Overcast
Overcast
69.6 °F
Feels Like 69.6 °F
N
2.7
Wind Variable Wind from SSE

Today
High -- | Low -- °F
--% Chance of Precip.
Yesterday
High -- | Low -- °F
Precip. -- in
7:01 AM 5:31 PM
Waning Crescent, 1% visible
Pressure 30.05 in
Visibility 10.0 miles
Clouds Mostly Cloudy 1900 ft
Mostly Cloudy 2400 ft
Overcast 3300 ft
Dew Point 68 °F
Humidity 93%
Rainfall 0.02 in
Snow Depth Not available.
UV 1 out of 12
Pollen 3.20 out of 12
Air Quality Not available.
Flu Activity Not available.
METAR KEDC 211915Z AUTO 18006KT 10SM BKN019 BKN024 OVC033 22/19 A3005 RMK AO2

More Conditions Fewer Conditions

Pressure 30.05 in
Visibility 10.0 miles
Clouds Mostly Cloudy 1900 ft
Mostly Cloudy 2400 ft
Overcast 3300 ft
Dew Point 68 °F
Humidity 93%
Rainfall 0.02 in
Snow Depth Not available.
UV 1 out of 12
Pollen 3.20 out of 12
Air Quality Not available.
Flu Activity Not available.
METAR KEDC 211915Z AUTO 18006KT 10SM BKN019 BKN024 OVC033 22/19 A3005 RMK AO2

More Conditions Fewer Conditions

Nowcast | as of 12:17 PM CST on November 21, 2014

Through 4 PM CST...scattered showers and isolated thunderstorms will be possible across areas generally east of Highway 281. Spotty afternoon rainfall amounts of around 1/2 inch are possible over the coastal prairies...with most areas expected to see between a trace and a few hundredths of an inch.

×

10-Day Weather Forecast

Almanac

Astronomy

Nov. 21, 2014 Rise Set
Actual Time
Civil Twilight
Nautical Twilight
Astronomical Twilight
Moon
Length of Visible Light
Length of Day
Tomorrow will be .
, % of the Moon is Illuminated

Today's Extremes

State Highs State Lows

Community

WunderPhotos

Upload Photos

1,772,703 photos uploaded!

WunderBlogs® & News

Nearby

Air Quality

  Air Quality AQ Index Pollutant
Not available.

Snow Depth

Station Depth Elevation

Earthquake Activity

City Distance Mag. Time & Date
Minimum magnitude displayed is 2.5.

Coastal Water Temperatures

Place Temperature

Nearby Weather Stations